Time;durP1;ratioP1;P1;durP2;ratioP2;P2;SDS_P1;SDS_P2;PMS_P1;PMS_P2;Temp;Humidity;BMP_temperature;BMP_pressure;BME280_temperature;BME280_humidity;BME280_pressure;Samples;Min_cycle;Max_cycle;Signal;HPM_P1;HPM_P2
2022/04/01 00:01:50;;;;;;;3.57;3.00;;;4.10;99.90;;;;;;5036792;28;20206;-79
2022/04/01 00:04:17;;;;;;;3.70;2.53;;;4.10;99.90;;;;;;5045738;28;20178;-79
2022/04/01 00:06:43;;;;;;;3.13;2.83;;;4.10;99.90;;;;;;5055488;28;20209;-77
2022/04/01 00:09:08;;;;;;;3.23;2.30;;;4.10;99.90;;;;;;5060686;28;20205;-80
2022/04/01 00:11:34;;;;;;;2.13;1.93;;;4.00;99.90;;;;;;5055712;28;20572;-79
2022/04/01 00:14:00;;;;;;;2.00;1.80;;;3.90;99.90;;;;;;5042027;28;20272;-79
2022/04/01 00:16:25;;;;;;;2.03;1.90;;;3.90;99.90;;;;;;5042265;28;20178;-79
2022/04/01 00:18:51;;;;;;;3.20;1.80;;;3.80;99.90;;;;;;5041566;28;20205;-79
2022/04/01 00:21:17;;;;;;;2.23;2.03;;;3.80;99.90;;;;;;5041897;28;20201;-79
2022/04/01 00:23:42;;;;;;;2.30;2.00;;;4.50;99.90;;;;;;5041756;28;20182;-79
2022/04/01 00:26:09;;;;;;;2.10;1.83;;;;;;;;;;5040920;28;20210;-79
2022/04/01 00:28:34;;;;;;;2.73;2.10;;;3.70;99.90;;;;;;5039357;28;20194;-79
2022/04/01 00:31:00;;;;;;;2.83;2.10;;;3.70;99.90;;;;;;5041203;28;20178;-79
2022/04/01 00:33:26;;;;;;;2.23;2.00;;;3.60;99.90;;;;;;5040814;28;20232;-79
2022/04/01 00:35:53;;;;;;;2.87;2.40;;;3.60;99.90;;;;;;5040651;28;20178;-80
2022/04/01 00:38:19;;;;;;;3.23;2.80;;;3.60;99.90;;;;;;5040763;28;20210;-79
2022/04/01 00:40:45;;;;;;;3.53;2.87;;;3.50;99.90;;;;;;5040821;28;20539;-79
2022/04/01 00:43:11;;;;;;;3.43;2.53;;;3.40;99.90;;;;;;5039365;28;20189;-79
2022/04/01 00:45:38;;;;;;;3.43;2.87;;;3.40;99.90;;;;;;5040882;28;20182;-79
2022/04/01 00:48:04;;;;;;;3.40;2.93;;;3.30;99.90;;;;;;5040659;28;20197;-79
2022/04/01 00:50:32;;;;;;;3.27;2.93;;;3.30;99.90;;;;;;5040686;28;20186;-79
2022/04/01 00:52:58;;;;;;;4.77;2.73;;;3.30;99.90;;;;;;5040399;28;20253;-79
2022/04/01 00:55:27;;;;;;;3.43;2.70;;;3.20;99.90;;;;;;5039953;28;20179;-79
2022/04/01 00:57:52;;;;;;;3.13;2.83;;;3.20;99.90;;;;;;5055931;28;20301;-79
2022/04/01 01:00:19;;;;;;;4.27;3.67;;;3.20;99.90;;;;;;5040333;28;20182;-79
2022/04/01 01:02:47;;;;;;;3.57;3.27;;;3.20;99.90;;;;;;5055032;28;20178;-79
2022/04/01 01:05:13;;;;;;;3.00;2.67;;;3.20;99.90;;;;;;5055420;28;20650;-79
2022/04/01 01:07:42;;;;;;;2.73;2.07;;;3.20;99.90;;;;;;5040009;28;20218;-79
2022/04/01 01:10:10;;;;;;;2.90;2.60;;;3.10;99.90;;;;;;5055410;28;20178;-79
2022/04/01 01:12:37;;;;;;;3.20;2.50;;;3.10;99.90;;;;;;5055254;28;20414;-80
2022/04/01 01:15:13;;;;;;;2.27;2.07;;;3.00;99.90;;;;;;5040089;28;20607;-79
2022/04/01 01:17:39;;;;;;;2.93;2.63;;;3.00;99.90;;;;;;5040198;28;20252;-79
2022/04/01 01:20:27;;;;;;;2.80;2.50;;;3.10;99.90;;;;;;5039691;28;20416;-79
2022/04/01 01:22:53;;;;;;;3.13;2.60;;;3.10;99.90;;;;;;5039851;28;20181;-79
2022/04/01 01:25:19;;;;;;;3.07;2.80;;;3.10;99.90;;;;;;5038879;28;20277;-79
2022/04/01 01:27:45;;;;;;;2.70;2.50;;;3.10;99.90;;;;;;5039822;28;20210;-79
2022/04/01 01:30:11;;;;;;;2.60;2.40;;;2.90;99.90;;;;;;5040168;28;20177;-79
2022/04/01 01:32:37;;;;;;;3.20;2.87;;;2.90;99.90;;;;;;5039612;28;20390;-79
2022/04/01 01:35:05;;;;;;;3.00;2.70;;;2.90;99.90;;;;;;5040313;28;20643;-79
2022/04/01 01:37:31;;;;;;;3.20;2.90;;;2.80;99.90;;;;;;5040147;28;20907;-79
2022/04/01 01:39:59;;;;;;;3.23;2.90;;;2.80;99.90;;;;;;5039402;28;20416;-80
2022/04/01 01:42:24;;;;;;;4.00;3.60;;;2.80;99.90;;;;;;5054390;28;20175;-80
2022/04/01 01:44:50;;;;;;;3.43;3.13;;;2.80;99.90;;;;;;5040073;28;20421;-79
2022/04/01 01:47:16;;;;;;;4.37;3.63;;;2.80;99.90;;;;;;5039638;28;20676;-79
2022/04/01 01:55:10;;;;;;;3.43;3.13;;;2.70;99.90;;;;;;5039772;28;20169;-79
2022/04/01 01:57:35;;;;;;;3.27;2.97;;;2.70;99.90;;;;;;5040266;28;20432;-79
2022/04/01 02:00:10;;;;;;;3.13;2.87;;;2.60;99.90;;;;;;5043033;28;20178;-79
2022/04/01 02:02:39;;;;;;;3.70;3.30;;;2.60;99.90;;;;;;5059223;28;20193;-79
2022/04/01 02:05:06;;;;;;;5.03;3.60;;;2.60;99.90;;;;;;5059379;28;20412;-79
2022/04/01 02:07:33;;;;;;;3.40;3.10;;;2.60;99.90;;;;;;5043890;28;20468;-79
2022/04/01 02:09:58;;;;;;;3.30;3.00;;;2.60;99.90;;;;;;5058867;28;20444;-79
2022/04/01 02:12:24;;;;;;;4.17;3.77;;;2.40;99.90;;;;;;5043637;28;20412;-80
2022/04/01 02:14:50;;;;;;;3.43;3.13;;;2.60;99.90;;;;;;5043962;28;20181;-79
2022/04/01 02:17:15;;;;;;;5.80;3.27;;;2.80;99.90;;;;;;5043587;28;20205;-79
2022/04/01 02:19:41;;;;;;;2.90;2.60;;;;;;;;;;5043593;28;20174;-79
2022/04/01 02:22:07;;;;;;;3.30;3.00;;;2.40;99.90;;;;;;5042057;28;20554;-79
2022/04/01 02:24:33;;;;;;;3.47;3.10;;;2.50;99.90;;;;;;5058817;28;20624;-79
2022/04/01 02:27:00;;;;;;;4.00;3.17;;;;;;;;;;5044044;28;20591;-80
2022/04/01 02:29:28;;;;;;;3.43;2.90;;;;;;;;;;5041922;28;20516;-79
2022/04/01 02:31:53;;;;;;;3.93;2.80;;;2.40;99.90;;;;;;5043676;28;20408;-79
2022/04/01 02:34:26;;;;;;;2.47;2.27;;;2.40;99.90;;;;;;5043329;28;20404;-79
2022/04/01 02:36:53;;;;;;;3.47;2.77;;;2.40;99.90;;;;;;5059167;28;20178;-79
2022/04/01 02:39:19;;;;;;;2.83;2.63;;;;;;;;;;5043749;28;20412;-79
2022/04/01 02:41:46;;;;;;;2.40;2.20;;;2.30;99.90;;;;;;5043493;28;20436;-80
2022/04/01 02:44:12;;;;;;;2.23;2.03;;;;;;;;;;5041857;28;20420;-80
2022/04/01 02:46:48;;;;;;;1.90;1.80;;;2.20;99.90;;;;;;5042109;28;20969;-79
2022/04/01 02:49:15;;;;;;;1.80;1.70;;;2.20;99.90;;;;;;5058357;28;20440;-79
2022/04/01 02:51:43;;;;;;;2.30;2.10;;;2.20;99.90;;;;;;5043070;28;20745;-79
2022/04/01 02:54:11;;;;;;;2.20;1.80;;;2.10;99.90;;;;;;5043184;28;20409;-79
2022/04/01 02:56:38;;;;;;;2.00;1.90;;;2.10;99.90;;;;;;5058871;28;20966;-80
2022/04/01 02:59:08;;;;;;;1.60;1.50;;;2.10;99.90;;;;;;5042334;28;20433;-79
2022/04/01 03:01:41;;;;;;;1.60;1.50;;;2.00;99.90;;;;;;5057908;28;20409;-79
2022/04/01 03:04:09;;;;;;;1.57;1.47;;;2.00;99.90;;;;;;5057183;28;20877;-79
2022/04/01 03:06:36;;;;;;;1.97;1.40;;;2.00;99.90;;;;;;5039888;28;20543;-79
2022/04/01 03:09:02;;;;;;;1.70;1.60;;;1.90;99.90;;;;;;5040925;28;20551;-79
2022/04/01 03:11:27;;;;;;;1.77;1.67;;;2.00;99.90;;;;;;5055958;28;20444;-79
2022/04/01 03:13:53;;;;;;;1.83;1.53;;;2.00;99.90;;;;;;5055949;28;20567;-79
2022/04/01 03:16:18;;;;;;;1.40;1.30;;;1.90;99.90;;;;;;5039893;28;20186;-79
2022/04/01 03:18:44;;;;;;;1.60;1.50;;;;;;;;;;5038981;28;20267;-79
2022/04/01 03:21:11;;;;;;;1.93;1.70;;;1.80;99.90;;;;;;5039467;28;20544;-79
2022/04/01 03:23:38;;;;;;;1.73;1.63;;;1.80;99.90;;;;;;5037510;28;20432;-79
2022/04/01 03:26:04;;;;;;;1.70;1.53;;;;;;;;;;5038094;28;20467;-79
2022/04/01 03:28:30;;;;;;;1.80;1.70;;;1.70;99.90;;;;;;5039616;28;20420;-79
2022/04/01 03:30:56;;;;;;;1.40;1.30;;;;;;;;;;5066320;28;20531;-79
2022/04/01 03:33:21;;;;;;;1.70;1.57;;;1.80;99.90;;;;;;5061358;28;20221;-78
2022/04/01 03:35:47;;;;;;;1.60;1.50;;;;;;;;;;5060902;28;20420;-80
2022/04/01 03:38:13;;;;;;;1.70;1.60;;;1.70;99.90;;;;;;5048341;28;20205;-79
2022/04/01 03:40:41;;;;;;;2.30;1.87;;;1.70;99.90;;;;;;5042446;28;20774;-79
2022/04/01 03:43:07;;;;;;;1.80;1.70;;;;;;;;;;5040725;28;20181;-79
2022/04/01 03:45:36;;;;;;;1.40;1.30;;;;;;;;;;5039120;28;20431;-79
2022/04/01 03:48:12;;;;;;;1.63;1.53;;;1.60;99.90;;;;;;5036681;28;20520;-78
2022/04/01 03:50:39;;;;;;;1.70;1.60;;;1.60;99.90;;;;;;5053644;28;20774;-79
2022/04/01 03:53:07;;;;;;;1.80;1.70;;;1.60;99.90;;;;;;5043317;28;20406;-79
2022/04/01 03:55:35;;;;;;;1.70;1.60;;;1.60;99.90;;;;;;5058686;28;20421;-79
2022/04/01 03:58:12;;;;;;;1.80;1.70;;;1.50;99.90;;;;;;5044050;28;20437;-79
2022/04/01 04:00:40;;;;;;;2.00;1.87;;;1.60;99.90;;;;;;5039791;28;20931;-79
2022/04/01 04:03:12;;;;;;;1.67;1.57;;;1.40;99.90;;;;;;5042413;28;20421;-79
2022/04/01 04:05:39;;;;;;;2.37;1.30;;;1.50;99.90;;;;;;5035716;28;20425;-78
2022/04/01 04:08:06;;;;;;;2.73;1.73;;;1.40;99.90;;;;;;5037486;28;20453;-78
2022/04/01 04:10:34;;;;;;;1.53;1.27;;;1.40;99.90;;;;;;5052662;28;20496;-78
2022/04/01 04:13:03;;;;;;;1.37;1.27;;;1.40;99.90;;;;;;5037129;28;20413;-78
2022/04/01 04:15:50;;;;;;;4.00;3.47;;;1.30;99.90;;;;;;5052628;28;20439;-78
2022/04/01 04:18:19;;;;;;;2.57;2.37;;;1.30;99.90;;;;;;5037953;28;20428;-78
2022/04/01 04:21:10;;;;;;;2.27;2.07;;;1.30;99.90;;;;;;5052814;28;20504;-78
2022/04/01 04:23:43;;;;;;;1.77;1.67;;;1.30;99.90;;;;;;5053378;28;20424;-78
2022/04/01 04:26:13;;;;;;;1.80;1.70;;;1.30;99.90;;;;;;5036780;28;20475;-78
2022/04/01 04:28:44;;;;;;;2.20;2.00;;;1.20;99.90;;;;;;5053330;28;20437;-78
2022/04/01 04:31:13;;;;;;;2.00;1.80;;;2.60;99.90;;;;;;5038613;28;20448;-78
2022/04/01 04:33:48;;;;;;;3.73;2.13;;;1.30;99.90;;;;;;5037862;28;20417;-78
2022/04/01 04:36:19;;;;;;;2.20;2.00;;;1.40;99.90;;;;;;5039246;28;20400;-79
2022/04/01 04:38:46;;;;;;;1.57;1.47;;;1.20;99.90;;;;;;5054605;28;20445;-78
2022/04/01 04:41:12;;;;;;;1.77;1.63;;;1.10;99.90;;;;;;5038920;28;20504;-78
2022/04/01 04:43:41;;;;;;;1.67;1.57;;;1.20;99.90;;;;;;5039170;28;20421;-78
2022/04/01 04:46:09;;;;;;;1.20;1.10;;;1.10;99.90;;;;;;5038553;28;21001;-78
2022/04/01 04:48:36;;;;;;;1.40;1.30;;;1.10;99.90;;;;;;5039348;28;20436;-78
2022/04/01 04:51:03;;;;;;;1.20;1.10;;;1.00;99.90;;;;;;5038499;28;20502;-78
2022/04/01 04:53:34;;;;;;;1.37;1.27;;;1.10;99.90;;;;;;5054089;28;20427;-78
2022/04/01 04:56:04;;;;;;;1.43;1.33;;;1.10;99.90;;;;;;5048146;28;20417;-78
2022/04/01 04:58:39;;;;;;;3.90;3.50;;;1.10;99.90;;;;;;5061906;28;20441;-78
2022/04/01 05:01:19;;;;;;;4.60;3.43;;;1.10;99.90;;;;;;5045720;28;20437;-77
2022/04/01 05:04:15;;;;;;;3.97;3.47;;;1.20;99.90;;;;;;5035858;28;20463;-78
2022/04/01 05:07:07;;;;;;;4.20;3.40;;;1.20;99.90;;;;;;5034993;28;20460;-78
2022/04/01 05:09:51;;;;;;;3.03;2.50;;;1.30;99.90;;;;;;5036079;28;20441;-78
2022/04/01 05:12:34;;;;;;;2.33;2.13;;;1.30;99.90;;;;;;5033792;28;20429;-77
2022/04/01 05:15:00;;;;;;;2.07;1.70;;;1.20;99.90;;;;;;5034471;28;20400;-78
2022/04/01 05:17:31;;;;;;;2.10;1.80;;;1.10;99.90;;;;;;5034473;28;20457;-78
2022/04/01 05:19:59;;;;;;;2.00;1.67;;;1.10;99.90;;;;;;5035926;28;20555;-78
2022/04/01 05:22:48;;;;;;;6.43;3.20;;;1.20;99.90;;;;;;5036405;28;20455;-82
2022/04/01 05:25:20;;;;;;;3.03;2.60;;;1.10;99.90;;;;;;5051258;28;20413;-78
2022/04/01 05:27:50;;;;;;;4.23;3.53;;;1.20;99.90;;;;;;5035551;28;20464;-78
2022/04/01 05:30:18;;;;;;;6.40;5.20;;;1.10;99.90;;;;;;5034409;28;20400;-78
2022/04/01 05:33:08;;;;;;;11.17;9.83;;;1.30;99.90;;;;;;5035835;28;20778;-78
2022/04/01 05:35:37;;;;;;;5.33;4.83;;;1.30;99.90;;;;;;5051186;28;20487;-78
2022/04/01 05:38:04;;;;;;;3.07;2.70;;;1.00;99.90;;;;;;5037161;28;20435;-79
2022/04/01 05:40:31;;;;;;;2.50;2.30;;;1.20;99.90;;;;;;5036806;28;20409;-78
2022/04/01 05:42:59;;;;;;;5.73;3.27;;;1.30;99.90;;;;;;5052643;28;20413;-79
2022/04/01 05:45:29;;;;;;;5.87;2.90;;;1.50;99.90;;;;;;5038315;28;20427;-78
2022/04/01 05:47:56;;;;;;;5.73;3.90;;;1.40;99.90;;;;;;5036451;28;20476;-79
2022/04/01 05:50:22;;;;;;;11.37;5.17;;;1.30;99.90;;;;;;5038909;28;20448;-79
2022/04/01 05:52:50;;;;;;;11.20;5.07;;;1.40;99.90;;;;;;5055392;28;20493;-79
2022/04/01 05:55:20;;;;;;;26.97;11.00;;;1.40;99.90;;;;;;5039113;28;20849;-79
2022/04/01 05:57:46;;;;;;;33.77;14.43;;;1.50;99.90;;;;;;5039666;28;20435;-79
2022/04/01 06:00:13;;;;;;;7.33;3.80;;;;;;;;;;5039643;28;20409;-79
2022/04/01 06:03:26;;;;;;;13.63;7.60;;;1.70;99.90;;;;;;5039665;28;20178;-78
2022/04/01 06:06:01;;;;;;;14.23;8.93;;;1.40;99.90;;;;;;5037944;28;20421;-79
2022/04/01 06:08:36;;;;;;;6.93;4.53;;;1.50;99.90;;;;;;5053521;28;20444;-79
2022/04/01 06:11:04;;;;;;;10.00;7.93;;;1.50;99.90;;;;;;5034390;28;20408;-77
2022/04/01 06:14:00;;;;;;;12.60;7.90;;;1.50;99.90;;;;;;5037307;28;20397;-79
2022/04/01 06:16:28;;;;;;;7.37;5.80;;;1.80;99.90;;;;;;5042679;28;20436;-79
2022/04/01 06:19:10;;;;;;;8.97;6.60;;;1.90;99.90;;;;;;5041240;28;20463;-79
2022/04/01 06:21:47;;;;;;;14.60;8.80;;;1.70;99.90;;;;;;5043179;28;20397;-79
2022/04/01 06:24:34;;;;;;;54.20;25.00;;;1.70;99.90;;;;;;5040634;28;20401;-79
2022/04/01 06:27:00;;;;;;;10.20;6.33;;;1.70;99.90;;;;;;5039306;28;20448;-79
2022/04/01 06:29:26;;;;;;;10.73;6.27;;;;;;;;;;5055328;28;20413;-79
2022/04/01 06:32:01;;;;;;;8.07;4.43;;;1.50;99.90;;;;;;5039458;28;20424;-79
2022/04/01 06:34:57;;;;;;;9.33;5.43;;;1.60;99.90;;;;;;5055977;28;20185;-79
2022/04/01 06:37:28;;;;;;;8.37;5.10;;;1.70;99.90;;;;;;5042239;28;20440;-79
2022/04/01 06:40:07;;;;;;;6.00;4.27;;;1.80;99.90;;;;;;5043804;28;20500;-80
2022/04/01 06:42:37;;;;;;;7.87;5.23;;;1.70;99.90;;;;;;5042327;28;20496;-79
2022/04/01 06:45:03;;;;;;;4.30;3.67;;;;;;;;;;5044370;28;20432;-80
2022/04/01 06:47:30;;;;;;;3.10;2.80;;;;;;;;;;5045134;28;20558;-80
2022/04/01 06:49:56;;;;;;;3.50;2.90;;;;;;;;;;5044033;28;20489;-80
2022/04/01 06:52:22;;;;;;;4.80;3.57;;;;;;;;;;5048661;28;20430;-80
2022/04/01 06:54:48;;;;;;;3.60;3.17;;;;;;;;;;5055731;28;20472;-79
2022/04/01 06:57:14;;;;;;;3.53;2.90;;;1.70;99.90;;;;;;5058547;28;20463;-80
2022/04/01 06:59:40;;;;;;;2.50;2.30;;;;;;;;;;5057001;28;20472;-80
2022/04/01 07:02:07;;;;;;;3.63;2.30;;;;;;;;;;5047078;28;20436;-81
2022/04/01 07:04:34;;;;;;;2.90;2.30;;;;;;;;;;5045403;28;20421;-81
2022/04/01 07:07:00;;;;;;;2.80;2.33;;;;;;;;;;5045665;28;20463;-81
2022/04/01 07:09:26;;;;;;;7.43;6.00;;;1.70;99.90;;;;;;5046585;28;20433;-81
2022/04/01 07:11:53;;;;;;;58.40;38.40;;;;;;;;;;5062034;28;20421;-81
2022/04/01 07:14:19;;;;;;;77.87;49.50;;;;;;;;;;5045346;28;20482;-81
2022/04/01 07:16:45;;;;;;;32.47;24.57;;;1.70;99.90;;;;;;5046734;28;20413;-80
2022/04/01 07:19:11;;;;;;;7.17;5.90;;;1.90;99.90;;;;;;5046752;28;20443;-81
2022/04/01 07:21:37;;;;;;;13.47;11.93;;;;;;;;;;5062339;28;20197;-81
2022/04/01 07:24:04;;;;;;;15.97;12.37;;;;;;;;;;5047327;28;20413;-81
2022/04/01 07:26:30;;;;;;;6.63;5.90;;;;;;;;;;5047415;28;20555;-81
2022/04/01 07:28:56;;;;;;;3.50;3.20;;;2.10;99.90;;;;;;5047473;28;20448;-80
2022/04/01 07:34:09;;;;;;;4.23;3.30;;;2.20;99.90;;;;;;5048296;28;20166;-81
2022/04/01 07:36:36;;;;;;;4.37;3.40;;;2.20;99.90;;;;;;5047637;28;20413;-81
2022/04/01 07:39:02;;;;;;;3.37;2.73;;;;;;;;;;5048165;28;20229;-81
2022/04/01 07:41:34;;;;;;;7.63;5.73;;;;;;;;;;5045912;28;20413;-80
2022/04/01 07:44:01;;;;;;;5.37;3.53;;;2.10;99.90;;;;;;5046299;28;20421;-81
2022/04/01 07:46:27;;;;;;;3.10;2.40;;;2.20;99.90;;;;;;5047456;28;20456;-81
2022/04/01 07:48:52;;;;;;;4.23;3.17;;;2.10;99.90;;;;;;5047563;28;20204;-80
2022/04/01 07:51:18;;;;;;;5.50;3.07;;;1.90;99.90;;;;;;5047051;28;20178;-83
2022/04/01 07:53:43;;;;;;;8.40;5.80;;;1.90;99.90;;;;;;5061978;28;20228;-81
2022/04/01 07:56:09;;;;;;;3.40;2.63;;;2.00;99.90;;;;;;5046425;28;20189;-81
2022/04/01 07:58:35;;;;;;;3.07;2.30;;;1.90;99.90;;;;;;5062840;28;20210;-81
2022/04/01 08:01:03;;;;;;;2.70;2.30;;;1.80;99.90;;;;;;5046805;28;20615;-81
2022/04/01 08:03:29;;;;;;;2.93;2.20;;;1.90;99.90;;;;;;5064229;28;20707;-80
2022/04/01 08:05:55;;;;;;;2.00;1.70;;;;;;;;;;5064754;28;20182;-81
2022/04/01 08:08:20;;;;;;;4.00;2.00;;;1.90;99.90;;;;;;5048796;28;20222;-80
2022/04/01 08:10:46;;;;;;;2.27;2.07;;;1.90;99.90;;;;;;5048602;28;20189;-80
2022/04/01 08:13:12;;;;;;;2.40;2.10;;;;;;;;;;5065537;28;20189;-80
2022/04/01 08:15:39;;;;;;;2.93;2.17;;;2.00;99.90;;;;;;5053752;28;20206;-81
2022/04/01 08:18:05;;;;;;;3.73;2.63;;;;;;;;;;5070031;28;20511;-80
2022/04/01 08:20:31;;;;;;;3.40;1.97;;;2.30;99.90;;;;;;5049286;28;20186;-80
2022/04/01 08:22:57;;;;;;;3.63;2.40;;;;;;;;;;5046573;28;20190;-79
2022/04/01 08:25:23;;;;;;;2.90;2.37;;;2.10;99.90;;;;;;5048539;28;20182;-80
2022/04/01 08:27:48;;;;;;;2.90;2.27;;;2.20;99.90;;;;;;5047750;28;20476;-80
2022/04/01 08:30:14;;;;;;;2.93;2.63;;;3.20;99.90;;;;;;5046176;28;20431;-80
2022/04/01 08:32:40;;;;;;;3.70;2.83;;;2.20;99.90;;;;;;5048222;28;20204;-80
2022/04/01 08:35:07;;;;;;;4.90;3.00;;;2.30;99.90;;;;;;5047465;28;20181;-80
2022/04/01 08:37:32;;;;;;;2.10;1.97;;;2.20;99.90;;;;;;5047540;28;20281;-80
2022/04/01 08:39:58;;;;;;;2.77;2.50;;;2.20;99.90;;;;;;5041899;28;20256;-81
2022/04/01 08:42:27;;;;;;;3.87;2.80;;;2.20;99.90;;;;;;5046851;28;20197;-79
2022/04/01 08:44:53;;;;;;;1.57;1.47;;;2.20;99.90;;;;;;5047862;28;20431;-80
2022/04/01 08:47:20;;;;;;;2.13;1.93;;;2.10;99.90;;;;;;5046887;28;20494;-80
2022/04/01 08:49:46;;;;;;;3.20;2.40;;;;;;;;;;5047690;28;20425;-79
2022/04/01 08:52:11;;;;;;;2.20;2.00;;;2.20;99.90;;;;;;5047662;28;20879;-79
2022/04/01 08:54:37;;;;;;;2.07;1.87;;;2.30;99.90;;;;;;5047556;28;20174;-79
2022/04/01 08:57:05;;;;;;;2.10;1.87;;;2.20;99.90;;;;;;5047005;28;20184;-79
2022/04/01 08:59:31;;;;;;;2.60;1.63;;;2.00;99.90;;;;;;5045982;28;20575;-79
2022/04/01 09:02:05;;;;;;;2.43;2.23;;;2.10;99.90;;;;;;5046599;28;20413;-79
2022/04/01 09:04:31;;;;;;;2.40;2.20;;;2.10;99.90;;;;;;5048296;28;20635;-79
2022/04/01 09:07:12;;;;;;;2.60;2.40;;;2.10;99.90;;;;;;5050795;28;20459;-79
2022/04/01 09:09:38;;;;;;;3.63;2.50;;;2.10;99.90;;;;;;5047666;28;20186;-79
2022/04/01 09:12:15;;;;;;;2.87;2.50;;;2.10;99.90;;;;;;5046190;28;20401;-79
2022/04/01 09:14:49;;;;;;;2.30;2.00;;;2.00;99.90;;;;;;5060661;28;20561;-79
2022/04/01 09:17:15;;;;;;;2.70;2.50;;;2.00;99.90;;;;;;5045379;28;20450;-79
2022/04/01 09:19:41;;;;;;;5.43;2.87;;;2.00;99.90;;;;;;5044841;28;20408;-79
2022/04/01 09:22:23;;;;;;;3.00;2.03;;;2.00;99.90;;;;;;5045112;28;20200;-79
2022/04/01 09:25:02;;;;;;;4.10;2.83;;;2.00;99.90;;;;;;5059712;28;20174;-79
2022/04/01 09:27:39;;;;;;;14.27;5.77;;;1.90;99.90;;;;;;5043173;28;20472;-78
2022/04/01 09:30:08;;;;;;;7.43;3.73;;;1.90;99.90;;;;;;5055568;28;20423;-78
2022/04/01 09:32:46;;;;;;;4.03;3.27;;;1.90;99.90;;;;;;5038786;28;20469;-78
2022/04/01 09:35:13;;;;;;;2.70;2.37;;;1.80;99.90;;;;;;5038235;28;20480;-78
2022/04/01 09:37:44;;;;;;;4.33;2.50;;;1.90;99.90;;;;;;5038543;28;21008;-78
2022/04/01 09:40:11;;;;;;;2.13;1.97;;;1.90;99.90;;;;;;5037842;28;20766;-78
2022/04/01 09:42:38;;;;;;;3.63;2.77;;;;;;;;;;5036555;28;20421;-78
2022/04/01 09:45:04;;;;;;;2.80;1.93;;;1.90;99.90;;;;;;5038772;28;20405;-78
2022/04/01 09:47:39;;;;;;;2.73;2.20;;;1.90;99.90;;;;;;5038180;28;20544;-78
2022/04/01 09:50:13;;;;;;;2.00;1.70;;;1.90;99.90;;;;;;5038714;28;20399;-78
2022/04/01 09:52:41;;;;;;;2.37;2.17;;;1.90;99.90;;;;;;5037575;28;20411;-78
2022/04/01 09:55:07;;;;;;;2.13;1.70;;;1.90;99.90;;;;;;5036960;28;20409;-78
2022/04/01 09:57:33;;;;;;;2.47;1.87;;;1.80;99.90;;;;;;5036212;28;20209;-78
2022/04/01 09:59:59;;;;;;;1.93;1.73;;;2.20;99.90;;;;;;5037290;28;20413;-78
2022/04/01 10:02:26;;;;;;;3.23;2.40;;;2.00;99.90;;;;;;5037103;28;20957;-78
2022/04/01 10:04:53;;;;;;;3.83;2.57;;;1.90;99.90;;;;;;5038011;28;20178;-78
2022/04/01 10:07:20;;;;;;;4.07;2.70;;;2.10;99.90;;;;;;5046624;28;20464;-78
2022/04/01 10:09:48;;;;;;;1.70;1.60;;;2.20;99.90;;;;;;5055560;28;20397;-78
2022/04/01 10:12:17;;;;;;;1.60;1.50;;;2.00;99.90;;;;;;5056616;28;20393;-78
2022/04/01 10:14:43;;;;;;;1.43;1.33;;;2.00;99.90;;;;;;5059220;28;20496;-78
2022/04/01 10:17:15;;;;;;;2.20;1.93;;;2.10;99.90;;;;;;5039699;28;20432;-78
2022/04/01 10:19:47;;;;;;;1.83;1.73;;;2.10;99.90;;;;;;5054614;28;20483;-78
2022/04/01 10:22:16;;;;;;;2.80;1.90;;;2.20;99.90;;;;;;5041501;28;20484;-78
2022/04/01 10:24:42;;;;;;;1.90;1.80;;;2.10;99.90;;;;;;5041476;28;20409;-77
2022/04/01 10:27:21;;;;;;;1.87;1.73;;;2.40;99.90;;;;;;5037212;28;20509;-77
2022/04/01 10:29:47;;;;;;;1.53;1.43;;;2.30;99.90;;;;;;5037672;28;20158;-78
2022/04/01 10:32:34;;;;;;;2.00;1.80;;;2.20;99.90;;;;;;5055216;28;20413;-78
2022/04/01 10:35:03;;;;;;;1.30;1.20;;;2.30;99.90;;;;;;5039177;28;20413;-78
2022/04/01 10:37:31;;;;;;;1.70;1.60;;;2.20;99.90;;;;;;5040456;28;20433;-78
2022/04/01 10:40:08;;;;;;;1.40;1.30;;;2.40;99.90;;;;;;5039871;28;20416;-78
2022/04/01 10:42:37;;;;;;;2.00;1.70;;;2.30;99.90;;;;;;5040537;28;20491;-78
2022/04/01 10:45:21;;;;;;;1.40;1.10;;;2.40;99.90;;;;;;5039912;28;20178;-78
2022/04/01 10:54:03;;;;;;;3.07;2.87;;;2.40;99.90;;;;;;5038375;28;20455;-78
2022/04/01 10:56:31;;;;;;;2.00;1.80;;;2.30;99.90;;;;;;5053503;28;20555;-78
2022/04/01 10:59:07;;;;;;;2.00;1.90;;;2.20;99.90;;;;;;5037335;28;20433;-78
2022/04/01 11:01:35;;;;;;;2.10;1.73;;;2.30;99.90;;;;;;5040525;28;20424;-78
2022/04/01 11:04:13;;;;;;;2.30;2.10;;;2.40;99.90;;;;;;5054966;28;20492;-77
2022/04/01 11:06:56;;;;;;;2.50;1.93;;;2.30;99.90;;;;;;5039078;28;20869;-77
2022/04/01 11:09:45;;;;;;;2.97;2.30;;;2.30;99.90;;;;;;5053255;28;20190;-77
2022/04/01 11:12:17;;;;;;;1.90;1.80;;;2.40;99.90;;;;;;5037449;28;20393;-78
2022/04/01 11:14:55;;;;;;;2.07;1.60;;;2.40;99.90;;;;;;5037159;28;20170;-77
2022/04/01 11:17:34;;;;;;;1.60;1.50;;;2.50;99.90;;;;;;5037107;28;20529;-77
2022/04/01 11:20:18;;;;;;;1.83;1.73;;;2.50;99.90;;;;;;5035832;28;20502;-77
2022/04/01 11:22:53;;;;;;;3.17;2.37;;;2.50;99.90;;;;;;5036170;28;20906;-78
2022/04/01 11:25:25;;;;;;;6.53;4.50;;;2.60;99.90;;;;;;5034966;28;20427;-77
2022/04/01 11:28:11;;;;;;;3.40;2.67;;;2.70;99.90;;;;;;5035127;28;20468;-77
2022/04/01 11:30:42;;;;;;;2.93;2.37;;;2.80;99.90;;;;;;5036364;28;20740;-77
2022/04/01 11:33:14;;;;;;;2.80;2.40;;;2.70;99.90;;;;;;5035324;28;20744;-78
2022/04/01 11:35:42;;;;;;;4.50;3.70;;;2.70;99.90;;;;;;5037426;28;20883;-78
2022/04/01 11:38:09;;;;;;;2.57;2.10;;;2.70;99.90;;;;;;5037536;28;20429;-78
2022/04/01 11:40:39;;;;;;;3.03;2.70;;;2.70;99.90;;;;;;5036652;28;20419;-77
2022/04/01 11:43:06;;;;;;;4.23;3.70;;;2.50;99.90;;;;;;5036094;28;20177;-77
2022/04/01 11:45:40;;;;;;;5.37;4.03;;;2.70;99.90;;;;;;5036503;28;20464;-78
2022/04/01 11:48:19;;;;;;;2.33;2.13;;;2.80;99.90;;;;;;5051826;28;20206;-77
2022/04/01 11:50:47;;;;;;;2.53;1.30;;;2.90;99.90;;;;;;5037354;28;20177;-78
2022/04/01 11:53:25;;;;;;;2.90;1.83;;;2.90;99.90;;;;;;5037590;28;20417;-78
2022/04/01 11:55:53;;;;;;;1.40;1.30;;;2.60;99.90;;;;;;5036191;28;20948;-78
2022/04/01 11:58:19;;;;;;;1.20;1.17;;;2.50;99.90;;;;;;5038992;28;20201;-78
2022/04/01 12:00:45;;;;;;;1.40;1.30;;;2.40;99.90;;;;;;5038137;28;20690;-78
2022/04/01 12:03:12;;;;;;;2.20;2.00;;;2.60;99.90;;;;;;5036949;28;20250;-79
2022/04/01 12:05:39;;;;;;;2.30;2.10;;;2.50;99.90;;;;;;5053553;28;20281;-79
2022/04/01 12:10:59;;;;;;;3.23;2.93;;;2.50;99.90;;;;;;5039788;28;20508;-79
2022/04/01 12:13:27;;;;;;;2.00;1.90;;;2.40;99.90;;;;;;5056919;28;20409;-78
2022/04/01 12:15:53;;;;;;;2.50;2.30;;;2.20;99.90;;;;;;5040783;28;20404;-78
2022/04/01 12:18:21;;;;;;;2.70;2.50;;;2.20;99.90;;;;;;5040907;28;20190;-78
2022/04/01 12:20:48;;;;;;;2.47;2.27;;;2.20;99.90;;;;;;5038944;28;20417;-79
2022/04/01 12:23:15;;;;;;;2.27;2.07;;;2.30;99.90;;;;;;5038322;28;20181;-79
2022/04/01 12:25:43;;;;;;;2.33;1.80;;;2.30;99.90;;;;;;5036335;28;20166;-78
2022/04/01 12:28:12;;;;;;;2.73;2.10;;;2.40;99.90;;;;;;5051304;28;20359;-77
2022/04/01 12:30:58;;;;;;;2.93;1.97;;;2.40;99.90;;;;;;5038612;28;20174;-77
2022/04/01 12:33:28;;;;;;;2.27;2.00;;;2.40;99.90;;;;;;5039112;28;20193;-76
2022/04/01 12:36:05;;;;;;;2.17;1.97;;;2.40;99.90;;;;;;5055420;28;20414;-78
2022/04/01 12:38:40;;;;;;;2.37;2.20;;;2.50;99.90;;;;;;5038796;28;20198;-76
2022/04/01 12:41:21;;;;;;;3.63;2.73;;;2.50;99.90;;;;;;5042195;28;20469;-79
2022/04/01 12:43:49;;;;;;;2.77;1.97;;;2.40;99.90;;;;;;5045332;28;20755;-78
2022/04/01 12:46:18;;;;;;;2.57;2.37;;;2.20;99.90;;;;;;5040518;28;20865;-77
2022/04/01 12:49:12;;;;;;;2.57;2.37;;;2.20;99.90;;;;;;5035854;28;20202;-78
2022/04/01 12:51:42;;;;;;;2.80;2.43;;;2.10;99.90;;;;;;5040272;28;20425;-77
2022/04/01 12:54:10;;;;;;;3.43;3.00;;;2.10;99.90;;;;;;5039495;28;20166;-77
2022/04/01 12:56:44;;;;;;;4.00;2.70;;;2.10;99.90;;;;;;5038183;28;20190;-78
2022/04/01 12:59:36;;;;;;;2.33;2.10;;;1.90;99.90;;;;;;5044319;28;20711;-78
2022/04/01 13:02:06;;;;;;;3.20;1.97;;;1.90;99.90;;;;;;5046747;28;20598;-79
2022/04/01 13:05:10;;;;;;;3.43;2.60;;;1.90;99.90;;;;;;5057659;28;20445;-82
2022/04/01 13:07:36;;;;;;;6.17;4.10;;;2.00;99.90;;;;;;5048515;28;20480;-79
2022/04/01 13:10:14;;;;;;;4.67;3.10;;;1.90;99.90;;;;;;5035831;28;20401;-79
2022/04/01 13:12:40;;;;;;;1.77;1.63;;;1.90;99.90;;;;;;5035357;28;20930;-78
2022/04/01 13:15:08;;;;;;;1.50;1.40;;;2.00;99.90;;;;;;5035690;28;20417;-78
2022/04/01 13:18:02;;;;;;;2.80;2.30;;;2.10;99.90;;;;;;5035948;28;20217;-78
2022/04/01 13:20:33;;;;;;;3.37;2.20;;;2.00;99.90;;;;;;5043882;28;20487;-78
2022/04/01 13:23:00;;;;;;;1.60;1.50;;;2.30;99.90;;;;;;5056714;28;20412;-79
2022/04/01 13:25:27;;;;;;;1.50;1.37;;;2.00;99.90;;;;;;5059596;28;20436;-77
2022/04/01 13:27:56;;;;;;;2.00;1.90;;;2.20;99.90;;;;;;5048021;28;20486;-79
2022/04/01 13:30:22;;;;;;;1.83;1.63;;;2.20;99.90;;;;;;5036330;28;20421;-79
2022/04/01 13:32:48;;;;;;;1.73;1.50;;;2.60;99.90;;;;;;5036415;28;20483;-79
2022/04/01 13:35:14;;;;;;;3.83;2.60;;;2.50;99.90;;;;;;5036124;28;20249;-78
2022/04/01 13:37:39;;;;;;;3.00;2.63;;;2.40;99.90;;;;;;5052041;28;20252;-78
2022/04/01 13:40:06;;;;;;;1.83;1.47;;;2.40;99.90;;;;;;5035864;28;20166;-78